createdAt,value
2019-05-06T00:00:24.691Z,61.60
2019-05-06T00:02:56.181Z,61.77
2019-05-06T00:05:27.554Z,62.10
2019-05-06T00:07:58.642Z,61.57
2019-05-06T00:10:31.120Z,61.43
2019-05-06T00:13:02.013Z,61.56
2019-05-06T00:15:34.295Z,62.03
2019-05-06T00:18:06.221Z,62.48
2019-05-06T00:20:37.281Z,62.71
2019-05-06T00:23:28.291Z,62.80
2019-05-06T00:26:30.159Z,63.31
2019-05-06T00:29:05.028Z,63.55
2019-05-06T00:31:36.325Z,63.06
2019-05-06T00:34:07.276Z,63.39
2019-05-06T00:36:38.331Z,63.59
2019-05-06T00:39:26.802Z,63.80
2019-05-06T00:42:04.999Z,63.63
2019-05-06T00:44:36.032Z,64.57
2019-05-06T00:47:07.037Z,64.00
2019-05-06T00:49:38.090Z,65.27
2019-05-06T00:52:09.083Z,65.40
2019-05-06T00:54:40.390Z,65.16
2019-05-06T00:57:11.473Z,65.00
2019-05-06T00:59:44.165Z,64.31
2019-05-06T01:02:15.441Z,62.98
2019-05-06T01:04:46.479Z,64.17
2019-05-06T01:07:17.437Z,64.60
2019-05-06T01:09:48.596Z,64.74
2019-05-06T01:12:19.738Z,64.41
2019-05-06T01:14:54.376Z,64.07
2019-05-06T01:17:25.170Z,64.43
2019-05-06T01:19:56.497Z,64.41
2019-05-06T01:22:29.027Z,65.30
2019-05-06T01:25:00.397Z,64.77
2019-05-06T01:27:33.642Z,64.92
2019-05-06T01:30:04.728Z,65.27
2019-05-06T01:32:35.771Z,64.60
2019-05-06T01:35:06.951Z,65.29
2019-05-06T01:37:39.451Z,65.66
2019-05-06T01:40:35.217Z,65.47
2019-05-06T01:43:11.279Z,65.87
2019-05-06T01:45:43.917Z,65.90
2019-05-06T01:48:18.429Z,65.53
2019-05-06T01:50:49.449Z,65.78
2019-05-06T01:53:20.374Z,66.31
2019-05-06T01:55:51.455Z,66.17
2019-05-06T01:58:24.287Z,66.70
2019-05-06T02:00:55.414Z,66.46
2019-05-06T02:03:26.388Z,66.15
2019-05-06T02:05:57.325Z,66.05
2019-05-06T02:08:28.538Z,66.54
2019-05-06T02:10:59.887Z,66.62
2019-05-06T02:13:31.421Z,65.89
2019-05-06T02:16:03.970Z,65.49
2019-05-06T02:18:35.222Z,65.09
2019-05-06T02:21:14.407Z,65.37
2019-05-06T02:23:49.571Z,65.37
2019-05-06T02:26:20.701Z,65.14
2019-05-06T02:28:54.524Z,64.96
2019-05-06T02:31:45.862Z,65.19
2019-05-06T02:34:21.595Z,65.96
2019-05-06T02:37:01.824Z,67.04
2019-05-06T02:39:34.091Z,66.11
2019-05-06T02:42:07.259Z,66.28
2019-05-06T02:44:38.450Z,66.12
2019-05-06T02:47:23.741Z,66.92
2019-05-06T02:49:57.959Z,65.86
2019-05-06T02:52:29.144Z,66.51
2019-05-06T02:55:01.765Z,65.77
2019-05-06T02:57:33.658Z,65.55
2019-05-06T03:00:06.617Z,67.23
2019-05-06T03:02:43.306Z,66.71
2019-05-06T03:05:12.888Z,66.47
2019-05-06T03:07:43.588Z,66.69
2019-05-06T03:10:16.001Z,66.66
2019-05-06T03:12:46.940Z,67.19
2019-05-06T03:15:17.915Z,66.94
2019-05-06T03:17:48.877Z,67.47
2019-05-06T03:21:00.298Z,67.25
2019-05-06T03:23:34.906Z,67.22
2019-05-06T03:26:06.983Z,66.32
2019-05-06T03:28:38.666Z,67.96
2019-05-06T03:31:09.739Z,67.26
2019-05-06T03:33:58.480Z,67.64
2019-05-06T03:36:23.846Z,69.22
2019-05-06T03:38:46.208Z,69.59
2019-05-06T03:41:17.708Z,68.92
2019-05-06T03:43:49.107Z,67.69
2019-05-06T03:46:38.487Z,69.42
2019-05-06T03:49:09.609Z,69.29
2019-05-06T03:51:42.867Z,71.55
2019-05-06T03:54:13.727Z,70.89
2019-05-06T03:56:44.853Z,68.75
2019-05-06T03:59:16.355Z,70.57
2019-05-06T04:01:47.302Z,69.93
2019-05-06T04:04:18.336Z,72.34
2019-05-06T04:06:53.796Z,69.90
2019-05-06T04:09:24.692Z,69.14
2019-05-06T04:11:55.920Z,69.02
2019-05-06T04:14:27.687Z,71.24
2019-05-06T04:17:06.390Z,72.75
2019-05-06T04:19:44.567Z,73.76
2019-05-06T04:22:23.535Z,72.35
2019-05-06T04:27:48.239Z,72.51
2019-05-06T04:30:20.442Z,73.80
2019-05-06T04:32:53.221Z,74.62
2019-05-06T04:35:24.572Z,72.98
2019-05-06T04:37:55.769Z,75.54
2019-05-06T04:40:26.831Z,75.32
2019-05-06T04:42:57.676Z,75.65
2019-05-06T04:45:29.011Z,75.66
2019-05-06T04:48:03.308Z,75.09
2019-05-06T04:50:33.362Z,75.64
2019-05-06T04:53:05.544Z,75.73
2019-05-06T04:55:37.859Z,76.19
2019-05-06T04:58:13.480Z,76.94
2019-05-06T05:00:44.795Z,76.74
2019-05-06T05:06:16.210Z,76.27
2019-05-06T05:11:48.402Z,74.30
2019-05-06T05:14:37.718Z,74.52
2019-05-06T05:17:12.838Z,74.56
2019-05-06T05:24:42.635Z,76.51
2019-05-06T05:27:17.228Z,75.31
2019-05-06T05:29:49.035Z,75.11
2019-05-06T05:34:52.258Z,74.84
2019-05-06T05:39:52.819Z,75.71
2019-05-06T05:44:53.287Z,75.73
2019-05-06T05:47:25.404Z,74.35
2019-05-06T05:50:04.892Z,74.04
2019-05-06T05:57:36.116Z,73.97
2019-05-06T06:00:12.919Z,73.78
2019-05-06T06:02:45.093Z,74.47
2019-05-06T06:05:17.032Z,74.47
2019-05-06T06:07:48.113Z,74.41
2019-05-06T06:10:43.537Z,75.70
2019-05-06T06:13:16.626Z,75.82
2019-05-06T06:16:13.731Z,76.03
2019-05-06T06:19:04.254Z,75.89
2019-05-06T06:22:22.768Z,76.73
2019-05-06T06:24:54.348Z,77.57
2019-05-06T06:33:06.933Z,77.01
2019-05-06T06:38:26.391Z,77.08
2019-05-06T06:43:48.144Z,75.12
2019-05-06T06:49:16.199Z,76.25
2019-05-06T06:57:07.255Z,76.27
2019-05-06T07:02:32.820Z,75.96
2019-05-06T07:14:22.603Z,74.83
2019-05-06T07:17:13.651Z,74.19
2019-05-06T07:22:42.295Z,71.86
2019-05-06T07:25:19.339Z,72.79
2019-05-06T07:27:57.041Z,73.12
2019-05-06T07:33:47.352Z,72.50
2019-05-06T07:36:22.805Z,71.17
2019-05-06T07:42:04.939Z,70.92
2019-05-06T07:45:14.397Z,69.29
2019-05-06T07:49:32.751Z,69.82
2019-05-06T07:51:49.391Z,69.96
2019-05-06T07:57:10.055Z,68.75
2019-05-06T08:02:22.793Z,67.12
2019-05-06T08:07:29.098Z,67.09
2019-05-06T08:10:02.134Z,66.38
2019-05-06T08:12:33.950Z,63.60
2019-05-06T08:15:08.006Z,63.78
2019-05-06T08:17:42.380Z,61.40
2019-05-06T08:20:15.333Z,61.22
2019-05-06T08:23:12.602Z,60.09
2019-05-06T08:25:49.112Z,59.66
2019-05-06T08:30:53.721Z,58.77
2019-05-06T08:36:07.592Z,58.21
2019-05-06T08:40:56.525Z,55.62
2019-05-06T08:46:03.043Z,55.36
2019-05-06T08:51:03.821Z,54.07
2019-05-06T08:56:09.729Z,50.74
2019-05-06T09:01:49.556Z,52.15
2019-05-06T09:07:04.303Z,52.91
2019-05-06T09:09:35.647Z,52.77
2019-05-06T09:12:13.033Z,51.01
2019-05-06T09:14:45.101Z,49.59
2019-05-06T09:19:45.265Z,50.92
2019-05-06T09:22:18.852Z,51.44
2019-05-06T09:27:39.298Z,50.75
2019-05-06T09:35:08.787Z,52.28
2019-05-06T09:42:38.539Z,49.91
2019-05-06T09:45:12.510Z,51.14
2019-05-06T09:47:55.999Z,49.79
2019-05-06T09:53:15.389Z,47.95
2019-05-06T09:58:15.391Z,47.34
2019-05-06T10:00:49.052Z,47.12
2019-05-06T10:03:39.276Z,48.17
2019-05-06T10:06:12.949Z,46.34
2019-05-06T10:08:43.727Z,44.42
2019-05-06T10:11:15.673Z,44.43
2019-05-06T10:18:47.086Z,43.07
2019-05-06T10:21:19.736Z,45.04
2019-05-06T10:26:20.611Z,43.41
2019-05-06T10:29:12.708Z,42.90
2019-05-06T10:31:46.747Z,40.81
2019-05-06T10:34:22.054Z,40.57
2019-05-06T10:37:33.344Z,44.17
2019-05-06T10:43:08.692Z,40.59
2019-05-06T10:48:16.454Z,42.88
2019-05-06T10:53:24.259Z,43.57
2019-05-06T10:58:26.197Z,42.52
2019-05-06T11:03:33.028Z,45.06
2019-05-06T11:08:35.515Z,45.33
2019-05-06T11:13:37.959Z,47.09
2019-05-06T11:18:42.615Z,46.93
2019-05-06T11:24:00.762Z,45.54
2019-05-06T11:26:32.980Z,46.29
2019-05-06T11:29:07.601Z,45.80
2019-05-06T11:32:02.515Z,47.13
2019-05-06T11:34:53.079Z,47.63
2019-05-06T11:37:50.173Z,47.39
2019-05-06T11:40:17.076Z,46.94
2019-05-06T11:47:47.021Z,45.28
2019-05-06T11:50:18.282Z,45.75
2019-05-06T11:57:57.673Z,46.07
2019-05-06T12:03:07.425Z,49.65
2019-05-06T12:08:09.006Z,52.22
2019-05-06T12:13:13.338Z,51.94
2019-05-06T12:21:11.295Z,50.71
2019-05-06T12:26:09.098Z,49.66
2019-05-06T12:31:09.462Z,50.64
2019-05-06T12:34:02.644Z,50.42
2019-05-06T12:39:20.002Z,50.14
2019-05-06T12:42:10.404Z,50.47
2019-05-06T12:44:44.855Z,51.04
2019-05-06T12:47:42.683Z,53.92
2019-05-06T12:50:14.768Z,53.31
2019-05-06T12:52:49.109Z,53.50
2019-05-06T12:55:24.834Z,52.83
2019-05-06T12:58:13.643Z,53.10
2019-05-06T13:00:47.739Z,52.85
2019-05-06T13:03:23.613Z,53.93
2019-05-06T13:05:57.059Z,54.47
2019-05-06T13:13:33.244Z,53.36
2019-05-06T13:16:17.042Z,53.25
2019-05-06T13:19:03.070Z,53.44
2019-05-06T13:24:07.935Z,53.33
2019-05-06T13:29:08.453Z,56.31
2019-05-06T13:34:08.727Z,57.31
2019-05-06T13:36:42.748Z,57.52
2019-05-06T13:39:32.889Z,54.66
2019-05-06T13:42:04.685Z,56.54
2019-05-06T13:44:36.057Z,56.31
2019-05-06T13:49:43.602Z,53.78
2019-05-06T13:52:23.179Z,54.03
2019-05-06T13:54:54.639Z,53.39
2019-05-06T13:57:28.922Z,54.59
2019-05-06T13:59:59.617Z,53.46
2019-05-06T14:02:50.086Z,52.75
2019-05-06T14:05:23.268Z,52.27
2019-05-06T14:08:13.168Z,49.95
2019-05-06T14:10:56.677Z,50.58
2019-05-06T14:18:18.462Z,48.15
2019-05-06T14:21:08.588Z,48.06
2019-05-06T14:23:40.372Z,48.27
2019-05-06T14:26:22.748Z,47.79
2019-05-06T14:28:53.514Z,46.29
2019-05-06T14:36:23.183Z,47.01
2019-05-06T14:41:27.520Z,47.89
2019-05-06T14:46:28.930Z,47.30
2019-05-06T14:51:32.900Z,46.92
2019-05-06T14:54:08.155Z,47.01
2019-05-06T14:59:19.990Z,47.28
2019-05-06T15:04:39.437Z,46.74
2019-05-06T15:07:12.518Z,46.49
2019-05-06T15:09:55.794Z,44.61
2019-05-06T15:12:16.009Z,44.96
2019-05-06T15:14:47.059Z,46.03
2019-05-06T15:17:18.211Z,46.14
2019-05-06T15:19:49.390Z,46.73
2019-05-06T15:22:22.455Z,46.92
2019-05-06T15:27:22.769Z,47.04
2019-05-06T15:35:22.331Z,48.02
2019-05-06T15:40:36.556Z,47.42
2019-05-06T15:43:10.186Z,48.61
2019-05-06T15:45:43.602Z,48.52
2019-05-06T15:48:15.443Z,48.28
2019-05-06T15:50:47.779Z,48.78
2019-05-06T15:55:53.270Z,48.95
2019-05-06T16:00:56.848Z,50.23
2019-05-06T16:05:57.576Z,50.48
2019-05-06T16:11:02.928Z,50.44
2019-05-06T16:16:09.236Z,50.71
2019-05-06T16:21:13.783Z,49.75
2019-05-06T16:34:12.076Z,50.66
2019-05-06T16:39:17.199Z,51.94
2019-05-06T16:41:49.068Z,51.79
2019-05-06T16:46:49.396Z,49.60
2019-05-06T16:51:52.472Z,49.69
2019-05-06T16:54:42.614Z,49.50
2019-05-06T16:57:13.843Z,50.69
2019-05-06T16:59:45.190Z,50.73
2019-05-06T17:02:26.461Z,51.61
2019-05-06T17:05:15.073Z,51.47
2019-05-06T17:07:46.786Z,52.79
2019-05-06T17:10:18.222Z,53.07
2019-05-06T17:12:49.297Z,54.07
2019-05-06T17:15:20.270Z,54.33
2019-05-06T17:17:53.104Z,54.17
2019-05-06T17:20:24.246Z,53.94
2019-05-06T17:22:55.393Z,53.23
2019-05-06T17:25:26.419Z,53.37
2019-05-06T17:28:02.016Z,53.08
2019-05-06T17:30:45.797Z,54.79
2019-05-06T17:33:42.786Z,54.65
2019-05-06T17:36:15.933Z,53.90
2019-05-06T17:38:48.755Z,55.52
2019-05-06T17:41:19.770Z,54.72
2019-05-06T17:43:52.119Z,54.97
2019-05-06T17:46:58.774Z,54.88
2019-05-06T17:49:29.880Z,55.41
2019-05-06T17:52:04.727Z,55.73
2019-05-06T17:54:35.918Z,56.92
2019-05-06T17:57:06.894Z,57.79
2019-05-06T17:59:38.003Z,57.87
2019-05-06T18:02:14.359Z,58.17
2019-05-06T18:04:45.443Z,58.37
2019-05-06T18:07:16.479Z,57.80
2019-05-06T18:09:47.417Z,57.33
2019-05-06T18:12:18.751Z,57.78
2019-05-06T18:14:49.868Z,58.23
2019-05-06T18:17:22.031Z,57.80
2019-05-06T18:19:53.248Z,57.28
2019-05-06T18:22:24.166Z,58.00
2019-05-06T18:24:55.253Z,58.21
2019-05-06T18:27:26.282Z,58.44
2019-05-06T18:30:11.528Z,58.57
2019-05-06T18:32:33.131Z,58.30
2019-05-06T18:35:03.024Z,58.47
2019-05-06T18:37:34.067Z,58.44
2019-05-06T18:40:06.368Z,59.09
2019-05-06T18:42:37.426Z,59.73
2019-05-06T18:45:08.419Z,59.51
2019-05-06T18:47:39.426Z,59.38
2019-05-06T18:50:13.777Z,59.54
2019-05-06T18:52:52.869Z,59.65
2019-05-06T18:55:23.626Z,59.85
2019-05-06T18:57:54.595Z,60.07
2019-05-06T19:00:25.604Z,60.06
2019-05-06T19:02:56.775Z,60.13
2019-05-06T19:10:33.051Z,60.30
2019-05-06T19:13:22.418Z,60.45
2019-05-06T19:15:53.926Z,60.49
2019-05-06T19:18:25.235Z,59.95
2019-05-06T19:21:15.416Z,59.26
2019-05-06T19:26:19.223Z,59.66
2019-05-06T19:28:52.693Z,59.91
2019-05-06T19:33:53.636Z,60.05
2019-05-06T19:38:54.568Z,60.29
2019-05-06T19:43:56.932Z,61.02
2019-05-06T19:48:58.909Z,61.36
2019-05-06T19:51:29.887Z,61.55
2019-05-06T19:54:02.235Z,61.82
2019-05-06T19:56:33.649Z,62.00
2019-05-06T20:04:10.437Z,62.56
2019-05-06T20:06:57.482Z,63.00
2019-05-06T20:09:42.544Z,62.78
2019-05-06T20:12:23.070Z,62.70
2019-05-06T20:15:19.383Z,63.62
2019-05-06T20:17:52.060Z,63.72
2019-05-06T20:20:23.110Z,64.50
2019-05-06T20:22:57.675Z,63.93
2019-05-06T20:25:30.295Z,64.65
2019-05-06T20:28:04.399Z,65.21
2019-05-06T20:30:38.112Z,65.11
2019-05-06T20:33:09.110Z,65.72
2019-05-06T20:35:40.141Z,65.27
2019-05-06T20:38:52.461Z,66.11
2019-05-06T20:41:23.448Z,66.12
2019-05-06T20:43:54.372Z,66.20
2019-05-06T20:46:33.431Z,65.61
2019-05-06T20:49:43.073Z,66.12
2019-05-06T20:53:01.042Z,65.68
2019-05-06T20:55:53.575Z,65.57
2019-05-06T20:58:19.907Z,65.71
2019-05-06T21:00:54.080Z,65.49
2019-05-06T21:03:25.137Z,64.76
2019-05-06T21:05:56.520Z,65.55
2019-05-06T21:08:42.195Z,64.67
2019-05-06T21:11:25.688Z,65.63
2019-05-06T21:13:45.920Z,66.37
2019-05-06T21:16:17.062Z,68.39
2019-05-06T21:18:48.346Z,70.70
2019-05-06T21:22:13.354Z,72.38
2019-05-06T21:24:02.074Z,73.54
2019-05-06T21:26:36.130Z,73.77
2019-05-06T21:29:12.790Z,73.31
2019-05-06T21:31:44.646Z,73.81
2019-05-06T21:34:15.615Z,72.58
2019-05-06T21:36:46.409Z,72.47
2019-05-06T21:39:17.418Z,72.23
2019-05-06T21:41:48.420Z,72.49
2019-05-06T21:44:19.422Z,71.54
2019-05-06T21:46:51.250Z,72.02
2019-05-06T21:51:51.659Z,71.79
2019-05-06T21:54:24.092Z,72.15
2019-05-06T21:56:55.190Z,72.69
2019-05-06T21:59:26.192Z,71.40
2019-05-06T22:01:57.219Z,71.61
2019-05-06T22:04:28.182Z,72.10
2019-05-06T22:06:59.099Z,73.59
2019-05-06T22:09:32.183Z,73.49
2019-05-06T22:12:02.858Z,72.89
2019-05-06T22:14:33.855Z,71.45
2019-05-06T22:17:07.335Z,73.38
2019-05-06T22:19:38.613Z,73.74
2019-05-06T22:22:12.053Z,73.70
2019-05-06T22:24:45.808Z,74.12
2019-05-06T22:27:17.160Z,74.25
2019-05-06T22:29:48.182Z,74.29
2019-05-06T22:32:19.211Z,73.10
2019-05-06T22:34:53.496Z,72.63
2019-05-06T22:37:24.966Z,74.17
2019-05-06T22:39:56.598Z,72.79
2019-05-06T22:42:27.527Z,72.96
2019-05-06T22:44:58.580Z,72.72
2019-05-06T22:47:29.563Z,71.67
2019-05-06T22:50:02.154Z,71.83
2019-05-06T22:52:33.585Z,72.89
2019-05-06T22:55:04.569Z,73.39
2019-05-06T22:57:35.779Z,71.48
2019-05-06T23:00:09.910Z,72.35
2019-05-06T23:03:03.390Z,71.71
2019-05-06T23:05:34.512Z,71.46
2019-05-06T23:08:06.295Z,70.99
2019-05-06T23:10:37.279Z,71.48
2019-05-06T23:13:08.331Z,70.81
2019-05-06T23:15:39.289Z,70.85
2019-05-06T23:18:10.312Z,70.27
2019-05-06T23:20:42.998Z,70.48
2019-05-06T23:23:14.154Z,72.07
2019-05-06T23:25:46.973Z,70.79
2019-05-06T23:28:17.932Z,69.99
2019-05-06T23:30:48.872Z,71.03
2019-05-06T23:33:19.908Z,71.37
2019-05-06T23:35:51.808Z,70.63
2019-05-06T23:39:16.953Z,70.79
2019-05-06T23:42:42.034Z,70.66
2019-05-06T23:46:07.264Z,70.05
2019-05-06T23:49:32.749Z,71.28
2019-05-06T23:52:58.302Z,70.85
2019-05-06T23:56:23.740Z,72.14
2019-05-06T23:58:54.876Z,71.48
